createdAt,value
2019-04-05T00:01:11.849Z,12.33
2019-04-05T00:03:42.127Z,13.08
2019-04-05T00:06:12.327Z,13.60
2019-04-05T00:08:42.739Z,12.30
2019-04-05T00:11:12.981Z,12.68
2019-04-05T00:13:43.305Z,13.55
2019-04-05T00:16:13.624Z,12.10
2019-04-05T00:18:43.835Z,13.80
2019-04-05T00:21:14.043Z,13.03
2019-04-05T00:23:44.287Z,12.30
2019-04-05T00:26:14.492Z,12.25
2019-04-05T00:28:44.696Z,13.32
2019-04-05T00:31:14.930Z,12.75
2019-04-05T00:33:45.205Z,13.30
2019-04-05T00:36:15.469Z,14.33
2019-04-05T00:38:45.721Z,14.35
2019-04-05T00:41:17.468Z,14.20
2019-04-05T00:43:47.837Z,14.18
2019-04-05T00:46:18.098Z,14.28
2019-04-05T00:48:48.615Z,14.90
2019-04-05T00:51:18.858Z,14.93
2019-04-05T00:53:49.070Z,15.68
2019-04-05T00:56:19.263Z,15.43
2019-04-05T00:58:49.723Z,15.25
2019-04-05T01:01:19.916Z,15.55
2019-04-05T01:03:50.170Z,15.48
2019-04-05T01:06:20.361Z,15.78
2019-04-05T01:08:50.585Z,16.12
2019-04-05T01:11:20.814Z,17.27
2019-04-05T01:13:51.020Z,17.77
2019-04-05T01:16:21.250Z,16.37
2019-04-05T01:18:51.566Z,18.27
2019-04-05T01:21:24.665Z,18.02
2019-04-05T01:23:54.873Z,16.67
2019-04-05T01:26:25.101Z,17.00
2019-04-05T01:28:55.279Z,15.65
2019-04-05T01:31:25.541Z,15.03
2019-04-05T01:33:55.800Z,15.25
2019-04-05T01:36:26.263Z,15.55
2019-04-05T01:38:56.587Z,16.73
2019-04-05T01:41:26.932Z,15.93
2019-04-05T01:43:58.713Z,18.80
2019-04-05T01:46:28.936Z,18.07
2019-04-05T01:48:59.135Z,18.45
2019-04-05T01:51:29.368Z,18.30
2019-04-05T01:53:59.645Z,19.37
2019-04-05T01:56:29.844Z,17.35
2019-04-05T01:59:00.095Z,14.80
2019-04-05T02:01:30.306Z,15.83
2019-04-05T02:04:01.679Z,15.45
2019-04-05T02:06:31.953Z,15.23
2019-04-05T02:09:02.209Z,13.98
2019-04-05T02:11:32.872Z,14.03
2019-04-05T02:14:03.090Z,13.25
2019-04-05T02:16:33.310Z,14.47
2019-04-05T02:19:03.704Z,14.18
2019-04-05T02:21:33.929Z,13.62
2019-04-05T02:24:04.231Z,13.53
2019-04-05T02:26:34.460Z,13.03
2019-04-05T02:29:04.693Z,13.08
2019-04-05T02:31:34.897Z,13.45
2019-04-05T02:34:05.120Z,13.85
2019-04-05T02:36:35.427Z,13.50
2019-04-05T02:39:06.720Z,13.62
2019-04-05T02:41:37.152Z,12.40
2019-04-05T02:44:07.456Z,12.37
2019-04-05T02:46:37.677Z,12.28
2019-04-05T02:49:09.548Z,12.43
2019-04-05T02:51:39.768Z,13.00
2019-04-05T02:54:11.613Z,13.10
2019-04-05T02:56:41.820Z,12.98
2019-04-05T02:59:12.756Z,12.75
2019-04-05T03:01:43.020Z,12.43
2019-04-05T03:04:13.257Z,12.90
2019-04-05T03:06:43.480Z,13.90
2019-04-05T03:09:13.761Z,13.72
2019-04-05T03:11:43.963Z,13.58
2019-04-05T03:14:14.517Z,13.00
2019-04-05T03:16:45.561Z,13.10
2019-04-05T03:19:17.747Z,12.58
2019-04-05T03:21:51.001Z,12.65
2019-04-05T03:24:23.096Z,12.65
2019-04-05T03:26:56.446Z,11.63
2019-04-05T03:29:28.453Z,11.70
2019-04-05T03:31:58.684Z,13.03
2019-04-05T03:34:28.946Z,11.97
2019-04-05T03:36:59.935Z,10.15
2019-04-05T03:39:30.127Z,12.63
2019-04-05T03:42:00.542Z,11.43
2019-04-05T03:44:32.394Z,11.70
2019-04-05T03:47:02.816Z,11.95
2019-04-05T03:49:33.006Z,10.95
2019-04-05T03:52:04.553Z,10.85
2019-04-05T03:54:35.068Z,12.33
2019-04-05T03:57:05.265Z,13.08
2019-04-05T03:59:35.588Z,12.63
2019-04-05T04:02:05.787Z,13.32
2019-04-05T04:04:37.854Z,11.85
2019-04-05T04:07:09.630Z,12.15
2019-04-05T04:09:39.885Z,12.10
2019-04-05T04:12:10.078Z,13.20
2019-04-05T04:14:40.343Z,12.28
2019-04-05T04:17:12.635Z,11.93
2019-04-05T04:19:42.576Z,11.85
2019-04-05T04:22:16.055Z,10.90
2019-04-05T04:24:46.461Z,12.98
2019-04-05T04:27:16.703Z,12.30
2019-04-05T04:29:47.208Z,11.08
2019-04-05T04:32:17.552Z,11.75
2019-04-05T04:34:48.057Z,12.37
2019-04-05T04:37:18.333Z,11.78
2019-04-05T04:39:48.711Z,12.80
2019-04-05T04:42:20.601Z,12.15
2019-04-05T04:44:50.874Z,9.53
2019-04-05T04:47:27.015Z,12.00
2019-04-05T04:49:53.498Z,13.08
2019-04-05T04:52:23.696Z,12.75
2019-04-05T04:54:54.044Z,12.18
2019-04-05T04:57:24.324Z,12.25
2019-04-05T04:59:54.788Z,12.25
2019-04-05T05:02:25.035Z,12.75
2019-04-05T05:04:55.290Z,11.95
2019-04-05T05:07:25.605Z,11.65
2019-04-05T05:09:57.470Z,12.82
2019-04-05T05:12:27.705Z,10.50
2019-04-05T05:14:59.483Z,12.30
2019-04-05T05:17:38.290Z,12.47
2019-04-05T05:20:01.778Z,10.38
2019-04-05T05:22:32.002Z,12.28
2019-04-05T05:25:02.239Z,12.47
2019-04-05T05:27:32.478Z,11.83
2019-04-05T05:30:02.800Z,10.25
2019-04-05T05:32:33.108Z,10.45
2019-04-05T05:35:03.678Z,12.07
2019-04-05T05:37:35.560Z,11.83
2019-04-05T05:40:08.198Z,12.28
2019-04-05T05:42:38.543Z,12.23
2019-04-05T05:45:08.756Z,12.63
2019-04-05T05:47:51.273Z,11.85
2019-04-05T05:50:10.916Z,10.48
2019-04-05T05:52:43.546Z,11.43
2019-04-05T05:55:13.742Z,11.70
2019-04-05T05:57:45.543Z,11.15
2019-04-05T06:00:17.277Z,11.00
2019-04-05T06:02:48.591Z,13.50
2019-04-05T06:05:19.122Z,12.33
2019-04-05T06:07:49.475Z,10.98
2019-04-05T06:10:19.818Z,12.45
2019-04-05T06:12:50.345Z,12.25
2019-04-05T06:15:20.549Z,11.20
2019-04-05T06:18:04.111Z,11.40
2019-04-05T06:20:24.282Z,13.78
2019-04-05T06:22:54.662Z,13.05
2019-04-05T06:25:24.971Z,11.73
2019-04-05T06:27:55.254Z,13.22
2019-04-05T06:30:28.619Z,12.28
2019-04-05T06:32:57.477Z,11.95
2019-04-05T06:35:27.757Z,11.00
2019-04-05T06:37:58.046Z,12.00
2019-04-05T06:40:40.068Z,12.50
2019-04-05T06:43:00.327Z,12.18
2019-04-05T06:45:30.599Z,13.35
2019-04-05T06:48:00.835Z,12.55
2019-04-05T06:50:31.927Z,12.43
2019-04-05T06:53:02.189Z,12.47
2019-04-05T06:55:34.027Z,12.88
2019-04-05T06:58:05.826Z,12.20
2019-04-05T07:00:36.041Z,12.00
2019-04-05T07:03:06.339Z,12.47
2019-04-05T07:05:36.587Z,11.78
2019-04-05T07:08:06.941Z,13.58
2019-04-05T07:10:37.135Z,13.05
2019-04-05T07:13:07.405Z,12.63
2019-04-05T07:15:37.847Z,12.70
2019-04-05T07:18:08.072Z,9.95
2019-04-05T07:20:39.843Z,12.55
2019-04-05T07:23:11.719Z,13.08
2019-04-05T07:25:41.919Z,12.35
2019-04-05T07:28:12.232Z,11.45
2019-04-05T07:30:42.437Z,12.45
2019-04-05T07:33:12.782Z,12.95
2019-04-05T07:35:43.071Z,10.60
2019-04-05T07:38:13.259Z,8.70
2019-04-05T07:40:43.495Z,12.30
2019-04-05T07:43:13.694Z,9.83
2019-04-05T07:45:45.982Z,12.98
2019-04-05T07:48:15.872Z,12.33
2019-04-05T07:50:46.224Z,10.82
2019-04-05T07:53:16.588Z,11.38
2019-04-05T07:55:46.953Z,10.68
2019-04-05T07:58:18.002Z,9.38
2019-04-05T08:00:53.897Z,11.43
2019-04-05T08:03:24.501Z,10.00
2019-04-05T08:05:54.865Z,9.60
2019-04-05T08:08:34.505Z,10.32
2019-04-05T08:11:07.180Z,10.63
2019-04-05T08:13:38.425Z,9.20
2019-04-05T08:16:10.240Z,11.93
2019-04-05T08:18:40.426Z,9.10
2019-04-05T08:21:10.639Z,9.00
2019-04-05T08:23:40.901Z,9.58
2019-04-05T08:26:11.219Z,12.03
2019-04-05T08:28:41.513Z,11.90
2019-04-05T08:31:14.422Z,11.25
2019-04-05T08:33:43.687Z,9.98
2019-04-05T08:36:14.191Z,9.33
2019-04-05T08:38:44.382Z,10.80
2019-04-05T08:41:14.809Z,11.60
2019-04-05T08:43:47.187Z,9.90
2019-04-05T08:46:18.712Z,10.93
2019-04-05T08:48:48.977Z,11.57
2019-04-05T08:51:19.222Z,8.48
2019-04-05T08:53:49.412Z,9.73
2019-04-05T08:56:19.639Z,10.58
2019-04-05T08:58:49.851Z,8.70
2019-04-05T09:01:20.225Z,9.33
2019-04-05T09:03:50.507Z,9.85
2019-04-05T09:06:22.357Z,8.73
2019-04-05T09:08:52.678Z,9.05
2019-04-05T09:11:24.594Z,10.03
2019-04-05T09:13:54.781Z,9.88
2019-04-05T09:16:25.122Z,8.03
2019-04-05T09:18:55.301Z,7.40
2019-04-05T09:21:25.580Z,8.38
2019-04-05T09:23:59.219Z,8.03
2019-04-05T09:26:29.300Z,9.33
2019-04-05T09:28:59.565Z,8.08
2019-04-05T09:31:29.789Z,8.65
2019-04-05T09:34:00.248Z,10.25
2019-04-05T09:36:32.006Z,9.40
2019-04-05T09:39:02.243Z,9.68
2019-04-05T09:41:32.425Z,9.10
2019-04-05T09:44:02.643Z,10.32
2019-04-05T09:46:45.673Z,7.92
2019-04-05T09:49:05.592Z,9.65
2019-04-05T09:51:35.942Z,6.25
2019-04-05T09:54:06.121Z,8.68
2019-04-05T09:56:36.339Z,9.50
2019-04-05T09:59:08.140Z,9.58
2019-04-05T10:01:38.397Z,9.30
2019-04-05T10:04:08.650Z,7.90
2019-04-05T10:06:38.878Z,8.95
2019-04-05T10:09:09.258Z,8.83
2019-04-05T10:11:39.556Z,6.00
2019-04-05T10:14:09.825Z,8.55
2019-04-05T10:16:40.055Z,7.65
2019-04-05T10:19:10.276Z,8.75
2019-04-05T10:21:40.493Z,9.25
2019-04-05T10:24:10.689Z,7.12
2019-04-05T10:26:40.975Z,8.08
2019-04-05T10:29:11.255Z,8.40
2019-04-05T10:31:41.596Z,6.00
2019-04-05T10:34:11.833Z,7.45
2019-04-05T10:36:42.113Z,9.93
2019-04-05T10:39:12.354Z,8.40
2019-04-05T10:41:42.645Z,8.08
2019-04-05T10:44:14.518Z,7.05
2019-04-05T10:46:44.842Z,7.87
2019-04-05T10:49:16.869Z,6.92
2019-04-05T10:51:48.895Z,8.80
2019-04-05T10:54:19.147Z,7.17
2019-04-05T10:56:49.371Z,8.05
2019-04-05T10:59:19.585Z,8.75
2019-04-05T11:01:49.823Z,7.67
2019-04-05T11:04:20.079Z,9.30
2019-04-05T11:06:50.403Z,9.08
2019-04-05T11:09:20.819Z,9.55
2019-04-05T11:11:51.063Z,9.18
2019-04-05T11:14:22.916Z,9.50
2019-04-05T11:16:58.777Z,9.28
2019-04-05T11:19:26.686Z,10.18
2019-04-05T11:21:56.944Z,9.80
2019-04-05T11:24:27.177Z,8.38
2019-04-05T11:26:57.459Z,6.72
2019-04-05T11:29:27.702Z,9.00
2019-04-05T11:31:59.497Z,7.37
2019-04-05T11:34:29.711Z,7.50
2019-04-05T11:37:02.666Z,8.58
2019-04-05T11:39:31.961Z,8.68
2019-04-05T11:42:02.304Z,9.63
2019-04-05T11:44:33.100Z,9.53
2019-04-05T11:47:03.758Z,10.13
2019-04-05T11:49:34.515Z,7.40
2019-04-05T11:52:05.667Z,9.78
2019-04-05T11:54:35.945Z,8.38
2019-04-05T11:57:06.289Z,8.85
2019-04-05T11:59:36.504Z,9.43
2019-04-05T12:02:08.293Z,8.98
2019-04-05T12:04:38.697Z,7.22
2019-04-05T12:07:08.961Z,9.10
2019-04-05T12:09:39.148Z,10.80
2019-04-05T12:12:09.465Z,6.83
2019-04-05T12:14:39.698Z,8.70
2019-04-05T12:17:09.925Z,9.40
2019-04-05T12:19:40.183Z,9.83
2019-04-05T12:22:10.669Z,5.90
2019-04-05T12:24:40.933Z,5.67
2019-04-05T12:27:11.185Z,10.50
2019-04-05T12:29:41.545Z,5.62
2019-04-05T12:32:13.267Z,5.37
2019-04-05T12:34:45.323Z,5.72
2019-04-05T12:37:15.863Z,8.68
2019-04-05T12:39:46.209Z,8.00
2019-04-05T12:42:18.043Z,10.18
2019-04-05T12:44:48.450Z,8.58
2019-04-05T12:47:18.649Z,8.23
2019-04-05T12:49:48.907Z,5.28
2019-04-05T12:52:22.960Z,7.87
2019-04-05T12:54:54.820Z,6.58
2019-04-05T12:57:25.732Z,9.80
2019-04-05T12:59:58.789Z,9.00
2019-04-05T13:02:33.876Z,9.35
2019-04-05T13:05:03.318Z,7.08
2019-04-05T13:07:35.183Z,7.95
2019-04-05T13:10:07.307Z,9.28
2019-04-05T13:12:37.557Z,8.55
2019-04-05T13:15:13.731Z,7.12
2019-04-05T13:17:39.828Z,8.45
2019-04-05T13:20:10.149Z,7.12
2019-04-05T13:22:40.345Z,7.72
2019-04-05T13:25:11.461Z,8.23
2019-04-05T13:27:42.209Z,7.22
2019-04-05T13:30:12.495Z,7.58
2019-04-05T13:32:42.780Z,4.80
2019-04-05T13:35:16.543Z,6.40
2019-04-05T13:37:45.723Z,6.20
2019-04-05T13:40:16.188Z,8.30
2019-04-05T13:42:46.427Z,4.65
2019-04-05T13:45:16.742Z,7.42
2019-04-05T13:47:47.920Z,8.10
2019-04-05T13:50:19.693Z,6.85
2019-04-05T13:52:49.994Z,7.45
2019-04-05T13:55:20.237Z,8.25
2019-04-05T13:57:50.851Z,7.08
2019-04-05T14:00:21.329Z,6.12
2019-04-05T14:02:51.570Z,7.75
2019-04-05T14:05:22.701Z,8.90
2019-04-05T14:08:09.165Z,8.43
2019-04-05T14:10:25.085Z,9.38
2019-04-05T14:12:55.276Z,7.22
2019-04-05T14:15:25.505Z,8.80
2019-04-05T14:17:55.752Z,9.15
2019-04-05T14:20:26.388Z,8.53
2019-04-05T14:22:56.619Z,8.98
2019-04-05T14:25:29.959Z,9.95
2019-04-05T14:27:58.846Z,10.38
2019-04-05T14:30:32.446Z,9.60
2019-04-05T14:33:01.273Z,10.55
2019-04-05T14:35:31.451Z,10.55
2019-04-05T14:38:01.669Z,10.38
2019-04-05T14:40:33.146Z,10.70
2019-04-05T14:43:03.657Z,12.35
2019-04-05T14:45:35.960Z,10.95
2019-04-05T14:48:06.349Z,12.43
2019-04-05T14:50:36.644Z,11.73
2019-04-05T14:53:06.970Z,12.65
2019-04-05T14:55:37.283Z,12.33
2019-04-05T14:58:10.332Z,12.40
2019-04-05T15:00:39.473Z,11.43
2019-04-05T15:03:09.796Z,12.25
2019-04-05T15:05:40.163Z,10.68
2019-04-05T15:08:10.400Z,10.38
2019-04-05T15:10:40.707Z,10.55
2019-04-05T15:13:10.933Z,10.32
2019-04-05T15:15:41.174Z,11.10
2019-04-05T15:18:12.956Z,11.73
2019-04-05T15:20:43.248Z,10.93
2019-04-05T15:23:14.161Z,13.28
2019-04-05T15:25:44.988Z,10.63
2019-04-05T15:28:17.671Z,12.18
2019-04-05T15:30:49.458Z,10.82
2019-04-05T15:33:19.818Z,10.55
2019-04-05T15:35:50.007Z,9.83
2019-04-05T15:38:20.509Z,10.72
2019-04-05T15:40:50.819Z,11.78
2019-04-05T15:43:21.011Z,11.20
2019-04-05T15:45:51.269Z,11.10
2019-04-05T15:48:22.790Z,9.60
2019-04-05T15:50:57.688Z,11.03
2019-04-05T15:53:31.506Z,12.18
2019-04-05T15:56:04.028Z,11.38
2019-04-05T15:58:34.066Z,14.45
2019-04-05T16:01:06.398Z,16.50
2019-04-05T16:03:37.052Z,19.07
2019-04-05T16:06:07.350Z,21.07
2019-04-05T16:08:39.385Z,20.97
2019-04-05T16:11:09.593Z,19.30
2019-04-05T16:13:39.921Z,18.80
2019-04-05T16:16:11.488Z,19.23
2019-04-05T16:18:41.690Z,16.05
2019-04-05T16:21:13.538Z,14.05
2019-04-05T16:23:43.765Z,17.52
2019-04-05T16:26:15.537Z,13.60
2019-04-05T16:28:45.763Z,15.63
2019-04-05T16:31:17.513Z,14.83
2019-04-05T16:33:47.838Z,13.80
2019-04-05T16:36:18.034Z,14.07
2019-04-05T16:38:48.259Z,13.72
2019-04-05T16:41:18.467Z,13.40
2019-04-05T16:43:48.694Z,13.00
2019-04-05T16:46:18.915Z,13.50
2019-04-05T16:48:49.388Z,13.85
2019-04-05T16:51:19.622Z,11.20
2019-04-05T16:54:00.484Z,12.47
2019-04-05T16:56:30.764Z,12.65
2019-04-05T16:59:01.050Z,11.38
2019-04-05T17:01:31.234Z,9.78
2019-04-05T17:04:01.480Z,9.33
2019-04-05T17:06:33.329Z,11.85
2019-04-05T17:09:05.164Z,16.82
2019-04-05T17:11:35.405Z,35.73
2019-04-05T17:14:05.612Z,44.73
2019-04-05T17:16:35.844Z,24.20
2019-04-05T17:19:06.057Z,20.25
2019-04-05T17:21:38.026Z,15.70
2019-04-05T17:24:08.282Z,14.50
2019-04-05T17:26:38.521Z,16.62
2019-04-05T17:29:08.805Z,13.05
2019-04-05T17:31:39.064Z,11.48
2019-04-05T17:34:09.364Z,9.68
2019-04-05T17:36:39.643Z,10.75
2019-04-05T17:39:09.959Z,11.00
2019-04-05T17:41:40.224Z,11.08
2019-04-05T17:44:10.476Z,11.25
2019-04-05T17:46:42.421Z,11.65
2019-04-05T17:49:12.645Z,12.30
2019-04-05T17:51:42.853Z,10.93
2019-04-05T17:54:13.096Z,11.57
2019-04-05T17:56:43.302Z,11.28
2019-04-05T17:59:13.529Z,13.65
2019-04-05T18:01:43.918Z,12.28
2019-04-05T18:04:14.169Z,11.43
2019-04-05T18:06:44.401Z,13.20
2019-04-05T18:09:14.622Z,13.32
2019-04-05T18:11:44.835Z,12.88
2019-04-05T18:14:15.087Z,15.38
2019-04-05T18:16:45.368Z,13.08
2019-04-05T18:19:15.587Z,14.53
2019-04-05T18:21:45.846Z,13.53
2019-04-05T18:24:16.385Z,13.85
2019-04-05T18:26:46.682Z,14.20
2019-04-05T18:29:17.020Z,16.57
2019-04-05T18:31:47.226Z,21.25
2019-04-05T18:34:17.516Z,22.60
2019-04-05T18:36:48.440Z,24.60
2019-04-05T18:39:18.681Z,23.62
2019-04-05T18:41:48.907Z,20.57
2019-04-05T18:44:19.303Z,21.57
2019-04-05T18:46:49.570Z,15.85
2019-04-05T18:49:19.832Z,15.13
2019-04-05T18:51:50.065Z,15.28
2019-04-05T18:54:20.253Z,15.25
2019-04-05T18:56:50.490Z,14.45
2019-04-05T18:59:20.883Z,14.40
2019-04-05T19:01:51.083Z,15.25
2019-04-05T19:04:21.430Z,14.38
2019-04-05T19:06:51.762Z,15.60
2019-04-05T19:09:23.540Z,14.98
2019-04-05T19:11:53.761Z,15.75
2019-04-05T19:14:24.083Z,14.63
2019-04-05T19:16:55.862Z,15.03
2019-04-05T19:19:26.057Z,15.60
2019-04-05T19:21:56.425Z,15.65
2019-04-05T19:24:26.646Z,16.93
2019-04-05T19:26:57.022Z,15.83
2019-04-05T19:29:28.369Z,15.00
2019-04-05T19:49:47.541Z,14.95
2019-04-05T19:52:19.368Z,16.02
2019-04-05T19:54:49.924Z,16.30
2019-04-05T19:57:20.169Z,18.73
2019-04-05T19:59:52.896Z,17.30
2019-04-05T20:02:23.196Z,17.37
2019-04-05T20:04:53.393Z,17.25
2019-04-05T20:07:23.614Z,16.95
2019-04-05T20:09:53.848Z,17.10
2019-04-05T20:12:24.050Z,16.97
2019-04-05T20:14:54.298Z,17.00
2019-04-05T20:17:24.697Z,17.37
2019-04-05T20:19:55.833Z,17.75
2019-04-05T20:22:26.145Z,18.45
2019-04-05T20:24:56.340Z,17.98
2019-04-05T20:27:26.561Z,16.87
2019-04-05T20:29:56.854Z,18.77
2019-04-05T20:32:27.064Z,19.50
2019-04-05T20:34:57.288Z,17.77
2019-04-05T20:37:27.538Z,19.77
2019-04-05T20:39:57.815Z,18.92
2019-04-05T20:42:28.199Z,19.30
2019-04-05T20:44:58.462Z,19.15
2019-04-05T20:47:28.758Z,19.92
2019-04-05T20:49:58.962Z,18.62
2019-04-05T20:52:29.223Z,19.67
2019-04-05T20:55:00.637Z,20.20
2019-04-05T20:57:30.890Z,16.50
2019-04-05T21:00:01.092Z,17.10
2019-04-05T21:02:31.312Z,18.02
2019-04-05T21:05:01.564Z,20.80
2019-04-05T21:07:31.826Z,21.77
2019-04-05T21:10:02.313Z,22.17
2019-04-05T21:12:32.578Z,24.00
2019-04-05T21:15:02.854Z,21.80
2019-04-05T21:17:33.073Z,22.52
2019-04-05T21:20:03.272Z,23.40
2019-04-05T21:22:33.815Z,23.80
2019-04-05T21:25:05.618Z,22.85
2019-04-05T21:27:37.411Z,25.97
2019-04-05T21:30:08.078Z,27.40
2019-04-05T21:32:38.695Z,16.27
2019-04-05T21:35:08.893Z,23.20
2019-04-05T21:37:39.444Z,23.87
2019-04-05T21:40:09.946Z,29.80
2019-04-05T21:42:40.150Z,28.20
2019-04-05T21:45:10.422Z,26.40
2019-04-05T21:47:40.636Z,23.50
2019-04-05T21:50:10.853Z,22.27
2019-04-05T21:52:41.066Z,24.23
2019-04-05T21:55:11.290Z,23.02
2019-04-05T21:57:41.601Z,23.35
2019-04-05T22:00:14.980Z,19.73
2019-04-05T22:02:45.225Z,23.07
2019-04-05T22:05:15.422Z,19.15
2019-04-05T22:07:45.657Z,19.37
2019-04-05T22:10:16.073Z,21.17
2019-04-05T22:12:47.858Z,20.77
2019-04-05T22:15:19.661Z,17.37
2019-04-05T22:17:49.877Z,17.35
2019-04-05T22:20:20.597Z,13.80
2019-04-05T22:22:52.581Z,14.55
2019-04-05T22:25:22.833Z,14.87
2019-04-05T22:27:53.079Z,15.90
2019-04-05T22:30:23.347Z,13.18
2019-04-05T22:32:53.546Z,15.70
2019-04-05T22:35:23.873Z,14.18
2019-04-05T22:37:55.643Z,11.80
2019-04-05T22:40:25.893Z,12.40
2019-04-05T22:42:57.742Z,10.58
2019-04-05T22:45:27.974Z,11.43
2019-04-05T22:47:58.173Z,9.70
2019-04-05T22:50:28.667Z,8.40
2019-04-05T22:52:58.912Z,6.95
2019-04-05T22:55:29.106Z,6.85
2019-04-05T22:57:59.312Z,6.35
2019-04-05T23:00:29.543Z,6.95
2019-04-05T23:03:01.397Z,6.58
2019-04-05T23:05:31.694Z,6.47
2019-04-05T23:08:01.967Z,4.50
2019-04-05T23:10:32.291Z,4.10
2019-04-05T23:13:02.509Z,4.90
2019-04-05T23:15:32.779Z,5.12
2019-04-05T23:18:04.684Z,6.08
2019-04-05T23:20:34.915Z,5.85
2019-04-05T23:23:05.137Z,4.28
2019-04-05T23:25:35.322Z,4.12
2019-04-05T23:28:05.508Z,4.90
2019-04-05T23:30:35.754Z,7.00
2019-04-05T23:33:06.117Z,6.85
2019-04-05T23:35:36.318Z,6.17
2019-04-05T23:38:06.577Z,8.03
2019-04-05T23:40:37.607Z,6.78
2019-04-05T23:43:07.930Z,6.65
2019-04-05T23:45:38.227Z,3.27
2019-04-05T23:48:08.491Z,5.37
2019-04-05T23:50:38.706Z,5.50
2019-04-05T23:53:08.944Z,3.25
2019-04-05T23:55:39.148Z,5.67
2019-04-05T23:58:09.350Z,4.33
